Time;durP1;ratioP1;P1;durP2;ratioP2;P2;SDS_P1;SDS_P2;PMS_P1;PMS_P2;Temp;Humidity;BMP_temperature;BMP_pressure;BME280_temperature;BME280_humidity;BME280_pressure;Samples;Min_cycle;Max_cycle;Signal;HPM_P1;HPM_P2
2023/06/22 00:02:00;;;;;;;7.00;6.10;;;;;;;24.05;60.04;100682.97;108449;1277;21985;-78
2023/06/22 00:04:27;;;;;;;8.50;6.30;;;;;;;24.05;60.11;100684.79;108460;1281;21986;-77
2023/06/22 00:06:52;;;;;;;8.40;6.40;;;;;;;24.05;60.29;100683.13;108424;1277;24321;-76
2023/06/22 00:09:19;;;;;;;7.20;6.50;;;;;;;24.06;60.27;100686.84;108332;1279;23750;-62
2023/06/22 00:11:45;;;;;;;8.00;6.90;;;;;;;24.07;60.09;100691.11;108451;1282;21986;-61
2023/06/22 00:14:10;;;;;;;10.40;6.60;;;;;;;24.03;60.18;100697.84;108425;1282;21989;-64
2023/06/22 00:16:36;;;;;;;7.30;6.40;;;;;;;24.01;60.17;100702.08;108475;1278;21987;-77
2023/06/22 00:19:03;;;;;;;8.70;6.80;;;;;;;23.97;60.12;100703.73;108286;1282;22002;-77
2023/06/22 00:21:29;;;;;;;8.30;6.20;;;;;;;23.93;60.24;100705.92;108349;1282;23650;-61
2023/06/22 00:23:55;;;;;;;8.20;6.30;;;;;;;23.89;60.26;100703.14;108466;1271;22069;-62
2023/06/22 00:26:21;;;;;;;8.50;6.60;;;;;;;23.86;60.37;100701.90;108507;1281;21965;-61
2023/06/22 00:28:47;;;;;;;8.20;6.70;;;;;;;23.85;60.45;100701.05;108511;1276;21960;-76
2023/06/22 00:31:13;;;;;;;9.00;6.40;;;;;;;23.87;60.25;100707.03;108432;1281;23609;-77
2023/06/22 00:33:39;;;;;;;10.50;6.70;;;;;;;23.85;60.16;100706.27;108231;1280;23734;-77
2023/06/22 00:36:06;;;;;;;10.80;6.80;;;;;;;23.81;60.55;100711.86;108238;1277;23650;-77
2023/06/22 00:38:31;;;;;;;9.50;6.40;;;;;;;23.79;60.43;100714.32;108525;1278;21980;-61
2023/06/22 00:40:57;;;;;;;9.00;7.00;;;;;;;23.77;60.54;100714.65;108435;1281;23976;-62
2023/06/22 00:43:22;;;;;;;9.30;6.80;;;;;;;23.74;60.51;100713.73;108466;1281;23606;-61
2023/06/22 00:45:48;;;;;;;8.20;6.40;;;;;;;23.71;60.47;100712.84;108581;1281;21981;-78
2023/06/22 00:48:14;;;;;;;8.70;6.40;;;;;;;23.68;60.63;100713.55;108353;1281;21990;-63
2023/06/22 00:50:40;;;;;;;8.90;7.10;;;;;;;23.67;60.64;100715.10;108318;1281;21980;-78
2023/06/22 00:53:08;;;;;;;10.20;7.00;;;;;;;23.63;60.95;100712.83;108462;1279;21985;-75
2023/06/22 00:55:47;;;;;;;10.70;6.70;;;;;;;23.58;60.77;100712.36;108504;1281;22017;-77
2023/06/22 00:58:13;;;;;;;8.70;7.10;;;;;;;23.57;60.71;100713.19;108489;1281;21996;-61
2023/06/22 01:00:39;;;;;;;13.40;7.90;;;;;;;23.55;60.72;100711.35;108518;1281;21983;-78
2023/06/22 01:03:08;;;;;;;8.50;7.50;;;;;;;23.51;61.05;100712.08;108432;1277;21984;-76
2023/06/22 01:05:34;;;;;;;9.10;7.60;;;;;;;23.49;61.21;100714.37;108555;1281;23638;-78
2023/06/22 01:08:38;;;;;;;10.00;7.40;;;;;;;23.48;61.08;100714.98;108493;1281;21986;-62
2023/06/22 01:11:21;;;;;;;9.00;7.50;;;;;;;23.45;61.33;100717.47;108307;1281;22450;-77
2023/06/22 01:14:09;;;;;;;10.30;7.20;;;;;;;23.42;61.43;100718.18;108468;1271;21981;-61
2023/06/22 01:16:40;;;;;;;11.70;7.40;;;;;;;23.41;61.34;100718.99;108534;1281;23637;-77
2023/06/22 01:19:25;;;;;;;10.80;7.70;;;;;;;23.39;61.67;100716.77;108432;1278;22001;-78
2023/06/22 01:21:51;;;;;;;11.20;8.10;;;;;;;23.36;61.86;100720.02;108192;1282;21983;-68
2023/06/22 01:25:04;;;;;;;9.20;8.20;;;;;;;23.32;61.92;100718.97;108287;1277;23641;-61
2023/06/22 01:27:41;;;;;;;12.60;9.00;;;;;;;23.28;61.89;100722.24;108342;1282;21985;-76
2023/06/22 01:30:07;;;;;;;10.90;8.50;;;;;;;23.26;62.14;100727.05;108463;1277;21996;-61
2023/06/22 01:32:34;;;;;;;11.50;9.50;;;;;;;23.24;62.38;100730.55;108350;1281;23064;-72
2023/06/22 01:35:01;;;;;;;10.40;8.50;;;;;;;23.24;62.56;100735.94;108576;1281;23637;-61
2023/06/22 01:37:27;;;;;;;10.70;8.90;;;;;;;23.24;62.62;100733.63;108400;1282;21984;-61
2023/06/22 01:39:53;;;;;;;12.20;8.80;;;;;;;23.26;62.59;100732.39;108386;1271;21986;-61
2023/06/22 01:42:19;;;;;;;13.70;9.80;;;;;;;23.28;62.58;100736.42;108211;1282;22006;-61
2023/06/22 01:44:45;;;;;;;12.20;9.50;;;;;;;23.30;62.41;100735.20;108152;1280;22455;-62
2023/06/22 01:47:13;;;;;;;13.30;10.00;;;;;;;23.30;62.35;100738.64;108190;1280;24418;-61
2023/06/22 01:49:40;;;;;;;12.80;9.70;;;;;;;23.29;62.42;100736.55;108322;1274;22001;-61
2023/06/22 01:52:07;;;;;;;13.90;10.70;;;;;;;23.27;62.74;100735.75;108532;1281;21993;-76
2023/06/22 01:54:33;;;;;;;13.40;10.50;;;;;;;23.27;62.93;100735.77;108288;1281;21979;-61
2023/06/22 01:56:58;;;;;;;13.10;11.70;;;;;;;23.28;62.81;100736.77;108446;1282;22000;-61
2023/06/22 01:59:47;;;;;;;12.60;11.30;;;;;;;23.26;62.86;100737.63;108287;1282;21985;-76
2023/06/22 02:02:14;;;;;;;13.20;11.20;;;;;;;23.25;63.19;100737.65;108421;1277;21984;-77
2023/06/22 02:04:59;;;;;;;13.30;11.70;;;;;;;23.26;63.43;100741.36;108451;1281;21988;-62
2023/06/22 02:07:32;;;;;;;16.20;11.10;;;;;;;23.28;63.49;100741.44;108497;1278;23638;-75
2023/06/22 02:09:57;;;;;;;13.70;11.20;;;;;;;23.28;63.53;100741.06;108523;1271;21983;-62
2023/06/22 02:12:24;;;;;;;12.70;10.80;;;;;;;23.30;63.53;100743.09;108283;1282;21984;-74
2023/06/22 02:14:51;;;;;;;12.30;11.00;;;;;;;23.33;63.62;100742.91;108240;1282;21992;-75
2023/06/22 02:17:17;;;;;;;13.70;11.70;;;;;;;23.31;63.92;100744.65;108265;1282;21990;-74
2023/06/22 02:19:43;;;;;;;14.40;11.10;;;;;;;23.29;64.28;100743.48;108294;1277;21985;-61
2023/06/22 02:22:08;;;;;;;15.80;12.40;;;;;;;23.28;64.32;100742.30;108419;1277;21989;-75
2023/06/22 02:24:35;;;;;;;15.70;12.10;;;;;;;23.30;64.30;100741.64;108456;1271;21981;-74
2023/06/22 02:27:01;;;;;;;13.20;11.80;;;;;;;23.29;64.70;100743.86;108456;1281;22066;-74
2023/06/22 02:29:27;;;;;;;14.30;12.50;;;;;;;23.31;64.60;100746.80;108502;1282;21982;-74
2023/06/22 02:31:53;;;;;;;14.60;11.90;;;;;;;23.31;64.61;100745.70;108474;1282;22445;-67
2023/06/22 02:34:19;;;;;;;13.40;11.40;;;;;;;23.34;64.66;100751.13;108419;1282;22009;-73
2023/06/22 02:36:51;;;;;;;12.60;11.30;;;;;;;23.35;64.80;100752.84;108308;1281;22102;-74
2023/06/22 02:39:27;;;;;;;16.80;12.10;;;;;;;23.36;64.83;100751.69;108415;1281;21993;-61
2023/06/22 02:41:53;;;;;;;13.20;11.70;;;;;;;23.39;64.80;100752.59;108344;1282;21987;-73
2023/06/22 02:44:19;;;;;;;13.50;11.30;;;;;;;23.40;64.84;100753.58;108387;1282;22202;-73
2023/06/22 02:46:45;;;;;;;14.10;11.40;;;;;;;23.42;65.05;100751.49;108431;1278;21991;-61
2023/06/22 02:49:11;;;;;;;12.50;11.10;;;;;;;23.42;65.54;100751.90;108417;1282;21999;-73
2023/06/22 02:51:39;;;;;;;16.40;11.40;;;;;;;23.47;65.53;100754.23;108401;1278;21988;-73
2023/06/22 02:54:05;;;;;;;14.30;10.70;;;;;;;23.51;65.85;100754.02;109578;1277;21986;-73
2023/06/22 02:56:31;;;;;;;12.20;10.60;;;;;;;23.53;65.88;100763.20;108345;1282;21997;-61
2023/06/22 02:59:02;;;;;;;14.80;11.00;;;;;;;23.58;66.19;100762.70;108500;1271;21986;-63
2023/06/22 03:01:30;;;;;;;14.50;10.50;;;;;;;23.63;66.00;100763.66;108419;1277;21990;-74
2023/06/22 03:03:56;;;;;;;12.50;11.10;;;;;;;23.68;66.22;100768.01;108450;1279;24323;-74
2023/06/22 03:06:23;;;;;;;13.60;10.70;;;;;;;23.73;66.23;100776.54;108437;1277;21985;-62
2023/06/22 03:08:51;;;;;;;13.00;11.20;;;;;;;23.76;66.38;100779.02;108385;1278;21986;-74
2023/06/22 03:11:17;;;;;;;13.90;11.90;;;;;;;23.81;66.48;100781.08;108423;1282;23812;-75
2023/06/22 03:13:43;;;;;;;14.00;10.70;;;;;;;23.84;66.61;100781.58;108350;1271;21988;-74
2023/06/22 03:16:08;;;;;;;15.80;11.70;;;;;;;23.85;67.10;100781.30;108377;1281;21989;-61
2023/06/22 03:18:34;;;;;;;14.40;11.70;;;;;;;23.89;66.87;100786.30;108435;1282;21981;-74
2023/06/22 03:21:02;;;;;;;15.40;12.10;;;;;;;23.92;67.11;100789.66;108345;1274;22038;-73
2023/06/22 03:23:27;;;;;;;15.90;12.20;;;;;;;23.98;67.34;100796.70;108335;1278;22224;-73
2023/06/22 03:25:55;;;;;;;14.40;12.40;;;;;;;24.06;67.14;100801.21;108427;1282;22020;-61
2023/06/22 03:28:21;;;;;;;19.70;12.40;;;;;;;24.12;67.30;100801.20;108817;1282;21953;-62
2023/06/22 03:30:47;;;;;;;14.20;11.80;;;;;;;24.17;67.64;100800.86;108343;1277;22008;-74
2023/06/22 03:33:13;;;;;;;15.00;10.60;;;;;;;24.26;67.50;100797.46;109372;1282;21998;-76
2023/06/22 03:35:39;;;;;;;18.30;12.90;;;;;;;24.43;67.63;100795.11;108353;1279;21985;-74
2023/06/22 03:38:04;;;;;;;20.10;13.40;;;;;;;24.65;68.08;100789.95;108426;1278;21993;-74
2023/06/22 03:40:30;;;;;;;13.20;11.90;;;;;;;24.80;67.70;100788.14;108389;1281;21979;-73
2023/06/22 03:42:56;;;;;;;16.60;13.60;;;;;;;24.91;67.57;100788.51;108355;1277;21982;-74
2023/06/22 03:45:21;;;;;;;18.40;12.20;;;;;;;24.97;67.35;100786.65;108439;1277;21984;-60
2023/06/22 03:47:47;;;;;;;14.20;12.60;;;;;;;25.03;67.62;100783.04;108416;1282;22037;-61
2023/06/22 03:50:14;;;;;;;23.30;20.50;;;;;;;25.07;67.71;100786.52;108444;1279;21985;-75
2023/06/22 03:52:40;;;;;;;19.60;14.80;;;;;;;25.13;67.50;100792.41;108441;1278;21982;-61
2023/06/22 03:55:06;;;;;;;17.80;12.90;;;;;;;25.20;67.56;100797.13;108412;1282;22021;-62
2023/06/22 03:57:32;;;;;;;16.70;11.90;;;;;;;25.28;67.61;100800.04;108357;1282;22221;-74
2023/06/22 03:59:58;;;;;;;15.00;13.10;;;;;;;25.36;67.72;100797.90;108429;1277;21989;-74
2023/06/22 04:02:24;;;;;;;16.50;12.60;;;;;;;25.45;67.91;100804.32;108435;1271;21987;-75
2023/06/22 04:04:50;;;;;;;16.60;12.80;;;;;;;25.52;67.94;100803.48;108524;1277;21988;-74
2023/06/22 04:07:16;;;;;;;13.90;12.20;;;;;;;25.61;67.93;100805.20;108394;1281;21986;-61
2023/06/22 04:09:41;;;;;;;21.70;12.90;;;;;;;25.69;67.82;100806.45;108473;1281;21989;-76
2023/06/22 04:12:07;;;;;;;16.20;12.80;;;;;;;25.76;67.84;100801.45;108405;1278;23162;-74
2023/06/22 04:14:33;;;;;;;13.60;12.20;;;;;;;25.84;67.71;100792.48;108400;1271;21986;-76
2023/06/22 04:16:58;;;;;;;14.70;13.20;;;;;;;25.93;67.97;100790.95;108376;1275;21989;-77
2023/06/22 04:19:24;;;;;;;13.70;12.40;;;;;;;26.03;67.93;100789.86;108461;1277;21989;-76
2023/06/22 04:21:50;;;;;;;14.40;12.00;;;;;;;26.12;67.98;100787.80;108472;1278;23638;-61
2023/06/22 04:24:15;;;;;;;14.50;12.50;;;;;;;26.21;68.24;100787.57;108474;1281;22002;-76
2023/06/22 04:26:46;;;;;;;13.50;11.30;;;;;;;26.34;68.46;100789.30;108519;1282;21982;-61
2023/06/22 04:29:12;;;;;;;13.60;10.70;;;;;;;26.48;68.75;100792.08;108479;1281;21993;-61
2023/06/22 04:31:38;;;;;;;13.60;11.20;;;;;;;26.65;68.30;100793.02;108443;1273;21987;-61
2023/06/22 04:34:07;;;;;;;13.60;11.30;;;;;;;26.80;68.00;100800.55;108461;1279;22000;-61
2023/06/22 04:36:37;;;;;;;13.20;11.70;;;;;;;26.92;67.57;100802.74;108494;1281;21978;-77
2023/06/22 04:39:09;;;;;;;13.00;11.60;;;;;;;27.03;67.54;100799.60;108448;1281;23679;-61
2023/06/22 04:41:41;;;;;;;13.20;11.90;;;;;;;27.15;67.72;100798.84;108450;1281;22025;-76
2023/06/22 04:44:23;;;;;;;13.30;11.50;;;;;;;27.28;67.41;100792.85;108491;1280;21980;-61
2023/06/22 04:46:59;;;;;;;12.00;10.60;;;;;;;27.43;67.54;100795.90;108478;1282;21978;-61
2023/06/22 04:49:32;;;;;;;12.50;11.20;;;;;;;27.58;67.19;100799.60;108382;1281;21985;-76
2023/06/22 04:52:07;;;;;;;12.20;11.00;;;;;;;27.73;67.45;100803.88;108376;1278;21986;-76
2023/06/22 04:54:34;;;;;;;17.30;11.10;;;;;;;27.86;68.08;100804.47;108387;1277;21974;-61
2023/06/22 04:57:00;;;;;;;11.00;9.80;;;;;;;28.04;68.24;100792.09;108411;1282;21986;-65
2023/06/22 04:59:29;;;;;;;10.80;9.70;;;;;;;28.24;68.30;100788.00;108406;1271;23757;-77
2023/06/22 05:01:56;;;;;;;11.70;10.50;;;;;;;28.45;68.20;100788.06;108457;1278;22023;-62
2023/06/22 05:04:23;;;;;;;12.20;11.00;;;;;;;28.69;68.06;100791.98;108420;1281;21988;-77
2023/06/22 05:06:49;;;;;;;14.80;11.70;;;;;;;28.96;67.82;100795.11;108346;1281;22245;-76
2023/06/22 05:09:15;;;;;;;14.50;11.80;;;;;;;29.19;67.26;100791.54;108478;1279;21984;-61
2023/06/22 05:11:42;;;;;;;11.70;10.40;;;;;;;29.39;65.82;100793.56;108384;1278;21986;-60
2023/06/22 05:14:08;;;;;;;11.80;10.60;;;;;;;29.54;65.26;100801.49;108363;1278;22019;-73
2023/06/22 05:16:36;;;;;;;12.10;10.80;;;;;;;29.68;64.81;100803.92;108220;1282;23142;-60
2023/06/22 05:19:03;;;;;;;11.90;10.70;;;;;;;29.82;64.38;100806.88;108506;1281;21999;-61
2023/06/22 05:21:29;;;;;;;12.60;11.00;;;;;;;29.98;64.62;100809.27;108508;1279;21988;-75
2023/06/22 05:23:56;;;;;;;12.30;11.00;;;;;;;30.17;64.46;100807.67;108529;1278;23610;-74
2023/06/22 05:26:24;;;;;;;11.30;10.00;;;;;;;30.33;63.61;100808.39;108311;1281;23144;-77
2023/06/22 05:28:50;;;;;;;12.10;9.60;;;;;;;30.50;63.75;100803.83;108469;1282;21996;-74
2023/06/22 05:31:15;;;;;;;11.90;10.10;;;;;;;30.73;63.71;100805.55;108482;1271;21995;-61
2023/06/22 05:33:42;;;;;;;13.00;10.60;;;;;;;30.96;63.45;100809.63;108452;1279;22040;-63
2023/06/22 05:36:08;;;;;;;13.00;10.10;;;;;;;31.18;62.23;100812.48;108414;1276;21949;-81
2023/06/22 05:38:34;;;;;;;21.10;10.40;;;;;;;31.44;61.55;100815.38;108327;1276;21983;-60
2023/06/22 05:41:00;;;;;;;11.60;9.50;;;;;;;31.69;61.12;100815.95;109429;1277;21983;-63
2023/06/22 05:43:26;;;;;;;11.70;9.90;;;;;;;31.92;60.86;100815.80;108375;1282;21995;-63
2023/06/22 05:45:51;;;;;;;14.80;10.50;;;;;;;32.12;59.94;100818.35;108436;1281;21982;-74
2023/06/22 05:48:19;;;;;;;13.60;9.10;;;;;;;32.28;59.24;100818.50;108408;1282;21999;-63
2023/06/22 05:50:45;;;;;;;12.80;9.30;;;;;;;32.46;58.86;100819.08;108255;1277;22008;-73
2023/06/22 05:53:11;;;;;;;12.10;9.70;;;;;;;32.59;57.62;100816.73;108362;1282;21989;-63
2023/06/22 05:55:36;;;;;;;10.80;9.30;;;;;;;32.69;57.16;100818.70;108387;1277;21990;-62
2023/06/22 05:58:03;;;;;;;13.60;9.30;;;;;;;32.78;56.42;100820.73;108430;1276;21985;-72
2023/06/22 06:00:29;;;;;;;10.50;9.40;;;;;;;32.87;55.87;100818.16;108407;1277;22445;-74
2023/06/22 06:02:55;;;;;;;10.30;9.20;;;;;;;32.99;55.93;100821.49;108499;1278;23628;-74
2023/06/22 06:05:20;;;;;;;10.30;8.80;;;;;;;33.20;56.04;100825.77;108329;1282;22269;-73
2023/06/22 06:07:48;;;;;;;11.10;9.30;;;;;;;33.42;55.82;100824.89;108422;1281;22062;-73
2023/06/22 06:10:14;;;;;;;10.90;8.80;;;;;;;33.63;55.28;100826.75;108321;1280;22024;-73
2023/06/22 06:12:41;;;;;;;10.80;8.80;;;;;;;33.78;53.98;100824.95;108381;1282;21986;-72
2023/06/22 06:15:08;;;;;;;12.30;8.50;;;;;;;33.85;53.15;100827.38;108430;1282;22109;-62
2023/06/22 06:17:34;;;;;;;9.00;8.10;;;;;;;33.89;52.59;100827.99;108447;1282;21982;-63
2023/06/22 06:20:00;;;;;;;9.00;8.10;;;;;;;34.02;52.52;100824.71;108340;1282;22112;-62
2023/06/22 06:22:26;;;;;;;9.20;8.20;;;;;;;34.22;52.60;100820.98;108451;1282;21978;-63
2023/06/22 06:24:51;;;;;;;8.40;7.50;;;;;;;34.47;52.43;100816.15;108490;1278;21986;-64
2023/06/22 06:27:19;;;;;;;12.60;7.70;;;;;;;34.74;51.93;100817.13;108405;1282;21991;-62
2023/06/22 06:29:47;;;;;;;8.20;7.20;;;;;;;35.03;51.33;100813.98;108386;1282;21989;-63
2023/06/22 06:32:13;;;;;;;8.40;7.30;;;;;;;35.32;50.87;100814.77;108445;1282;21984;-63
2023/06/22 06:34:40;;;;;;;7.80;6.70;;;;;;;35.57;50.22;100814.00;108461;1271;21950;-72
2023/06/22 06:37:06;;;;;;;8.10;6.20;;;;;;;35.83;49.47;100812.39;108497;1281;23790;-64
2023/06/22 06:39:32;;;;;;;8.50;6.90;;;;;;;36.09;49.09;100816.67;108434;1282;22018;-64
2023/06/22 06:41:57;;;;;;;9.60;6.60;;;;;;;36.32;48.62;100815.87;108442;1278;22021;-71
2023/06/22 06:44:23;;;;;;;6.80;6.10;;;;;;;36.51;47.68;100811.79;108397;1278;23625;-64
2023/06/22 06:46:48;;;;;;;7.00;6.10;;;;;;;36.62;47.02;100814.17;108378;1278;22048;-73
2023/06/22 06:49:14;;;;;;;7.30;6.50;;;;;;;36.77;45.89;100815.20;108295;1281;22077;-72
2023/06/22 06:51:40;;;;;;;6.70;6.00;;;;;;;36.87;45.62;100820.00;108431;1271;21990;-73
2023/06/22 06:54:05;;;;;;;7.10;6.10;;;;;;;37.01;45.88;100817.90;108478;1278;23730;-73
2023/06/22 06:56:32;;;;;;;7.00;6.10;;;;;;;37.20;45.70;100813.57;108467;1282;22020;-65
2023/06/22 06:58:58;;;;;;;6.60;6.00;;;;;;;37.49;45.35;100812.20;108459;1281;21972;-72
2023/06/22 07:01:24;;;;;;;6.70;6.00;;;;;;;37.74;44.96;100811.24;108513;1282;22856;-72
2023/06/22 07:03:49;;;;;;;6.30;5.70;;;;;;;37.97;44.34;100807.00;108471;1282;21985;-64
2023/06/22 07:06:16;;;;;;;9.70;6.20;;;;;;;38.14;43.29;100807.70;108475;1278;21995;-72
2023/06/22 07:08:42;;;;;;;7.70;6.40;;;;;;;38.20;42.74;100810.78;108475;1282;21979;-71
2023/06/22 07:11:08;;;;;;;6.40;5.70;;;;;;;38.33;42.68;100806.84;108529;1280;24000;-72
2023/06/22 07:13:34;;;;;;;8.90;5.50;;;;;;;38.47;41.34;100807.77;108413;1278;22022;-70
2023/06/22 07:16:00;;;;;;;6.50;5.90;;;;;;;38.51;37.58;100804.30;108492;1271;21986;-66
2023/06/22 07:18:26;;;;;;;6.10;5.50;;;;;;;38.51;40.24;100809.34;108496;1281;21980;-73
2023/06/22 07:20:54;;;;;;;6.90;6.20;;;;;;;38.51;39.63;100813.31;108424;1281;21993;-74
2023/06/22 07:23:20;;;;;;;6.40;5.60;;;;;;;38.62;40.43;100815.67;108477;1282;23143;-65
2023/06/22 07:25:46;;;;;;;8.90;6.00;;;;;;;38.88;40.62;100815.71;108526;1279;21992;-74
2023/06/22 07:28:15;;;;;;;7.10;5.90;;;;;;;39.18;40.30;100815.08;108458;1282;21988;-72
2023/06/22 07:30:40;;;;;;;6.80;5.60;;;;;;;39.39;39.70;100818.59;108629;1282;21986;-66
2023/06/22 07:33:07;;;;;;;6.30;5.60;;;;;;;39.55;39.59;100824.46;108671;1282;22021;-72
2023/06/22 07:35:34;;;;;;;6.40;5.70;;;;;;;39.80;39.69;100825.26;108950;1281;21991;-74
2023/06/22 07:38:00;;;;;;;6.60;5.70;;;;;;;40.07;39.22;100820.84;108669;1274;21988;-73
2023/06/22 07:40:26;;;;;;;6.50;5.90;;;;;;;40.28;38.75;100813.33;108464;1279;21997;-67
2023/06/22 07:42:52;;;;;;;6.90;5.80;;;;;;;40.45;37.26;100813.42;108439;1281;21977;-72
2023/06/22 07:45:18;;;;;;;6.60;6.00;;;;;;;40.35;34.89;100813.06;108459;1281;22096;-65
2023/06/22 07:47:44;;;;;;;7.50;6.00;;;;;;;40.10;35.51;100819.00;108359;1277;22007;-72
2023/06/22 07:50:10;;;;;;;7.30;5.70;;;;;;;40.03;35.69;100823.06;108407;1282;21980;-65
2023/06/22 07:52:36;;;;;;;7.70;5.80;;;;;;;40.12;35.35;100818.19;108391;1278;21985;-72
2023/06/22 07:55:02;;;;;;;6.90;5.50;;;;;;;40.18;34.53;100816.45;108302;1279;196162;-74
2023/06/22 07:57:33;;;;;;;9.20;5.60;;;;;;;40.25;35.12;100820.35;108546;1277;22100;-65
2023/06/22 08:00:00;;;;;;;8.20;5.70;;;;;;;40.32;35.20;100824.34;108447;1282;22011;-74
2023/06/22 08:02:26;;;;;;;6.60;5.50;;;;;;;40.41;35.85;100829.95;108282;1282;24416;-67
2023/06/22 08:04:52;;;;;;;7.20;5.50;;;;;;;40.62;35.88;100831.19;108363;1282;22910;-66
2023/06/22 08:07:19;;;;;;;8.80;5.90;;;;;;;40.93;34.26;100831.46;108579;1278;21988;-66
2023/06/22 08:09:49;;;;;;;6.20;5.60;;;;;;;40.97;34.21;100836.60;108551;1278;21996;-66
2023/06/22 08:12:17;;;;;;;7.30;5.40;;;;;;;41.05;34.31;100835.77;108616;1281;23830;-65
2023/06/22 08:14:45;;;;;;;6.80;5.60;;;;;;;41.25;34.97;100837.41;108509;1278;21976;-66
2023/06/22 08:17:11;;;;;;;6.70;5.50;;;;;;;41.61;34.98;100840.31;108530;1275;22180;-70
2023/06/22 08:19:37;;;;;;;6.20;5.60;;;;;;;41.91;34.42;100833.38;108488;1277;21990;-66
2023/06/22 08:22:04;;;;;;;6.90;5.80;;;;;;;42.13;34.47;100832.48;108503;1282;22961;-65
2023/06/22 08:24:30;;;;;;;6.70;5.70;;;;;;;42.25;34.01;100828.83;108499;1275;22001;-72
2023/06/22 08:26:56;;;;;;;6.10;5.50;;;;;;;42.25;32.81;100828.44;108395;1272;23647;-65
2023/06/22 08:29:22;;;;;;;5.90;5.30;;;;;;;42.25;32.85;100828.87;108349;1281;23687;-71
2023/06/22 08:31:47;;;;;;;6.10;5.50;;;;;;;42.39;33.30;100822.79;108393;1278;21982;-70
2023/06/22 08:34:13;;;;;;;7.00;5.30;;;;;;;42.49;30.49;100821.21;108392;1281;21983;-72
2023/06/22 08:36:41;;;;;;;6.20;5.60;;;;;;;42.23;31.03;100828.09;108466;1275;21990;-66
2023/06/22 08:39:08;;;;;;;6.20;5.60;;;;;;;42.03;30.69;100826.52;108389;1282;21985;-67
2023/06/22 08:41:36;;;;;;;5.40;4.90;;;;;;;41.86;30.48;100827.44;108423;1277;21979;-71
2023/06/22 08:44:02;;;;;;;7.00;5.60;;;;;;;41.68;29.20;100826.45;108388;1282;21985;-70
2023/06/22 08:46:33;;;;;;;6.40;5.30;;;;;;;41.31;30.49;100829.14;108433;1281;21978;-70
2023/06/22 08:48:59;;;;;;;7.10;5.70;;;;;;;41.46;31.84;100826.00;108530;1281;23706;-71
2023/06/22 08:51:26;;;;;;;6.50;4.80;;;;;;;41.94;31.89;100823.52;108469;1281;22236;-70
2023/06/22 08:53:52;;;;;;;7.00;5.50;;;;;;;42.39;31.87;100820.52;108485;1282;21996;-71
2023/06/22 08:56:18;;;;;;;6.80;5.60;;;;;;;42.78;31.89;100822.92;108438;1277;21981;-71
2023/06/22 08:58:44;;;;;;;6.50;5.50;;;;;;;43.18;31.94;100822.25;108461;1278;22151;-71
2023/06/22 09:01:09;;;;;;;5.40;4.90;;;;;;;43.43;31.72;100817.61;108505;1277;21981;-66
2023/06/22 09:03:36;;;;;;;6.30;5.10;;;;;;;43.56;30.79;100812.84;108466;1276;21987;-66
2023/06/22 09:06:02;;;;;;;5.80;5.20;;;;;;;43.71;30.93;100816.08;108425;1282;21994;-65
2023/06/22 09:08:28;;;;;;;8.60;5.50;;;;;;;44.01;30.93;100817.85;108451;1278;21985;-70
2023/06/22 09:10:54;;;;;;;5.20;4.70;;;;;;;44.14;30.07;100819.31;108517;1281;21985;-71
2023/06/22 09:13:19;;;;;;;6.90;4.90;;;;;;;44.20;30.22;100820.75;108447;1282;21983;-72
2023/06/22 09:15:45;;;;;;;6.10;5.10;;;;;;;44.43;30.25;100816.31;108476;1281;21961;-66
2023/06/22 09:18:11;;;;;;;7.50;4.90;;;;;;;44.69;30.08;100818.44;108429;1281;21983;-66
2023/06/22 09:20:37;;;;;;;6.00;4.80;;;;;;;44.82;29.48;100819.47;108593;1281;21979;-67
2023/06/22 09:23:03;;;;;;;6.50;5.00;;;;;;;44.89;29.53;100819.56;108395;1281;23616;-67
2023/06/22 09:25:29;;;;;;;5.00;4.60;;;;;;;45.06;29.41;100820.16;108380;1281;21982;-66
2023/06/22 09:27:55;;;;;;;6.90;4.90;;;;;;;45.07;27.60;100813.80;108431;1281;23647;-70
2023/06/22 09:30:21;;;;;;;5.70;4.90;;;;;;;44.59;27.14;100813.60;108469;1279;21988;-66
2023/06/22 09:32:48;;;;;;;6.90;4.90;;;;;;;44.29;28.28;100816.02;109265;1281;23039;-69
2023/06/22 09:35:14;;;;;;;6.60;5.10;;;;;;;44.45;28.97;100816.59;108475;1279;21989;-64
2023/06/22 09:37:40;;;;;;;5.40;4.70;;;;;;;44.83;28.97;100817.80;108452;1278;22025;-69
2023/06/22 09:40:11;;;;;;;5.30;4.80;;;;;;;45.23;29.04;100816.50;108713;1279;22024;-69
2023/06/22 09:42:38;;;;;;;6.00;5.40;;;;;;;45.58;27.49;100815.00;108388;1282;22005;-69
2023/06/22 09:45:04;;;;;;;5.80;5.10;;;;;;;45.57;27.30;100813.65;108136;1281;23641;-64
2023/06/22 09:47:31;;;;;;;5.30;4.80;;;;;;;45.47;27.53;100812.13;108448;1282;21984;-68
2023/06/22 09:49:58;;;;;;;7.10;5.20;;;;;;;45.55;27.95;100811.76;108432;1282;22026;-63
2023/06/22 09:52:24;;;;;;;6.50;4.80;;;;;;;45.60;27.37;100815.05;108388;1278;21990;-68
2023/06/22 09:54:50;;;;;;;6.10;4.80;;;;;;;45.60;27.73;100811.88;108388;1270;21984;-70
2023/06/22 09:57:15;;;;;;;7.70;4.90;;;;;;;45.81;27.92;100811.23;108371;1278;21970;-65
2023/06/22 09:59:41;;;;;;;6.30;5.00;;;;;;;46.26;27.97;100807.86;108362;1282;22455;-70
2023/06/22 10:02:07;;;;;;;6.40;4.90;;;;;;;46.77;27.84;100805.19;108425;1282;21988;-69
2023/06/22 10:04:36;;;;;;;5.20;4.70;;;;;;;47.24;27.52;100803.15;108388;1282;22022;-61
2023/06/22 10:07:03;;;;;;;;;;;;;;;47.58;27.47;100800.38;108423;1280;21971;-69
2023/06/22 10:09:29;;;;;;;5.10;4.60;;;;;;;47.84;27.36;100800.73;108390;1282;22736;-62
2023/06/22 10:11:55;;;;;;;5.70;4.30;;;;;;;47.96;27.13;100798.99;108300;1282;23744;-66
2023/06/22 10:14:20;;;;;;;5.20;4.70;;;;;;;48.06;26.59;100801.50;108403;1275;22076;-63
2023/06/22 10:16:48;;;;;;;5.10;4.60;;;;;;;48.03;26.38;100802.84;108402;1282;22069;-69
2023/06/22 10:19:13;;;;;;;5.40;4.70;;;;;;;47.84;26.01;100800.75;108448;1282;23724;-70
2023/06/22 10:21:40;;;;;;;5.40;4.80;;;;;;;47.65;25.22;100804.48;108438;1282;22930;-68
2023/06/22 10:24:06;;;;;;;5.40;4.90;;;;;;;47.38;25.02;100799.24;108456;1281;22019;-70
2023/06/22 10:26:33;;;;;;;5.20;4.50;;;;;;;47.02;24.93;100803.45;108430;1282;22146;-62
2023/06/22 10:29:01;;;;;;;6.90;5.30;;;;;;;46.62;24.98;100802.07;108461;1282;21992;-70
2023/06/22 10:31:27;;;;;;;7.40;5.10;;;;;;;46.34;24.91;100798.52;108535;1282;21983;-63
2023/06/22 10:33:54;;;;;;;5.10;4.60;;;;;;;46.17;25.51;100796.34;108244;1280;21984;-69
2023/06/22 10:36:20;;;;;;;5.40;4.90;;;;;;;46.22;25.75;100792.21;108467;1282;21976;-70
2023/06/22 10:38:47;;;;;;;5.00;4.40;;;;;;;46.46;25.88;100788.90;108413;1282;21982;-64
2023/06/22 10:41:14;;;;;;;5.30;4.50;;;;;;;46.79;25.72;100786.12;108441;1282;22143;-70
2023/06/22 10:43:39;;;;;;;5.20;4.70;;;;;;;47.18;25.51;100779.81;108297;1282;21985;-62
2023/06/22 10:46:06;;;;;;;5.10;4.50;;;;;;;47.50;25.48;100778.85;108623;1274;21991;-68
2023/06/22 10:48:32;;;;;;;4.90;4.30;;;;;;;47.74;25.38;100777.58;108455;1282;21980;-70
2023/06/22 10:50:57;;;;;;;4.60;4.10;;;;;;;48.03;25.27;100779.97;108472;1282;23231;-62
2023/06/22 10:53:23;;;;;;;5.10;4.60;;;;;;;48.18;25.09;100784.88;108391;1281;21985;-63
2023/06/22 10:55:49;;;;;;;5.00;4.40;;;;;;;48.19;24.22;100779.70;108432;1277;22448;-70
2023/06/22 10:58:14;;;;;;;6.90;4.50;;;;;;;47.99;23.84;100774.45;108446;1282;21983;-64
2023/06/22 11:00:40;;;;;;;7.00;4.20;;;;;;;47.79;24.27;100776.08;108469;1282;21982;-71
2023/06/22 11:03:06;;;;;;;9.10;4.40;;;;;;;47.91;24.46;100780.30;108448;1276;22851;-64
2023/06/22 11:05:33;;;;;;;6.80;5.10;;;;;;;48.22;24.19;100780.02;108389;1282;21981;-64
2023/06/22 11:07:59;;;;;;;5.50;4.50;;;;;;;48.33;22.81;100779.02;108313;1282;21988;-66
2023/06/22 11:10:24;;;;;;;5.30;4.30;;;;;;;47.72;21.72;100774.08;108356;1282;22164;-65
2023/06/22 11:12:50;;;;;;;5.80;4.50;;;;;;;47.16;21.88;100774.94;108348;1282;23711;-68